Time;durP1;ratioP1;P1;durP2;ratioP2;P2;SDS_P1;SDS_P2;PMS_P1;PMS_P2;Temp;Humidity;BMP_temperature;BMP_pressure;BME280_temperature;BME280_humidity;BME280_pressure;Samples;Min_cycle;Max_cycle;Signal;HPM_P1;HPM_P2
2022/06/20 00:01:13;;;;;;;1.90;0.50;;;;;;;17.41;86.65;100587.75;5025187;28;20025;-62
2022/06/20 00:03:41;;;;;;;0.85;0.50;;;;;;;17.40;86.58;100567.91;5010477;28;20049;-63
2022/06/20 00:06:14;;;;;;;1.45;0.80;;;;;;;17.32;86.74;100547.38;5012490;28;20033;-62
2022/06/20 00:08:41;;;;;;;1.27;0.60;;;;;;;17.23;87.27;100547.06;5013363;28;20069;-62
2022/06/20 00:11:11;;;;;;;3.75;0.50;;;;;;;17.30;87.38;100562.56;5008058;28;20030;-63
2022/06/20 00:13:46;;;;;;;1.58;0.50;;;;;;;16.90;89.11;100545.00;5009771;28;20033;-63
2022/06/20 00:16:15;;;;;;;1.13;0.40;;;;;;;16.88;89.48;100566.38;5009420;28;20426;-63
2022/06/20 00:18:40;;;;;;;1.30;0.63;;;;;;;16.98;89.64;100569.03;5010837;28;20120;-62
2022/06/20 00:21:11;;;;;;;1.25;0.60;;;;;;;17.02;89.02;100555.41;5008041;28;20108;-62
2022/06/20 00:23:37;;;;;;;0.52;0.45;;;;;;;17.00;89.27;100560.47;5009851;28;20029;-63
2022/06/20 00:26:02;;;;;;;0.77;0.52;;;;;;;16.94;89.09;100567.50;5005590;28;20051;-63
2022/06/20 00:28:28;;;;;;;2.83;0.47;;;;;;;16.94;89.55;100581.09;5005429;28;20033;-64
2022/06/20 00:30:54;;;;;;;1.92;0.68;;;;;;;17.02;89.17;100601.66;5006949;28;20022;-63
2022/06/20 00:33:19;;;;;;;1.02;0.50;;;;;;;17.05;89.37;100603.59;5002999;28;20038;-63
2022/06/20 00:35:45;;;;;;;1.95;1.15;;;;;;;17.09;89.09;100631.56;5010161;28;20052;-62
2022/06/20 00:38:18;;;;;;;0.40;0.40;;;;;;;17.15;89.04;100644.34;5010355;28;20071;-62
2022/06/20 00:40:48;;;;;;;0.95;0.55;;;;;;;17.11;89.40;100627.25;5009129;28;20125;-65
2022/06/20 00:43:23;;;;;;;0.40;0.40;;;;;;;17.06;89.69;100630.41;5012328;28;20030;-64
2022/06/20 00:45:53;;;;;;;1.00;0.60;;;;;;;16.97;89.06;100643.69;5008060;28;20030;-63
2022/06/20 00:48:46;;;;;;;1.15;0.57;;;;;;;16.80;89.56;100624.75;5018178;28;20029;-64
2022/06/20 00:51:31;;;;;;;1.88;0.70;;;;;;;16.59;91.31;100603.09;5008470;28;20048;-63
2022/06/20 00:54:13;;;;;;;0.65;0.45;;;;;;;16.45;91.21;100573.22;5007389;28;20041;-64
2022/06/20 00:56:55;;;;;;;1.08;0.68;;;;;;;16.55;90.87;100550.69;5005158;28;20025;-64
2022/06/20 00:59:28;;;;;;;0.70;0.40;;;;;;;16.69;90.62;100545.91;5001710;28;20034;-63
2022/06/20 01:01:55;;;;;;;2.40;0.52;;;;;;;16.75;90.47;100538.09;5005779;28;20131;-63
2022/06/20 01:04:31;;;;;;;1.48;0.65;;;;;;;16.75;90.90;100527.22;5007590;28;20060;-64
2022/06/20 01:07:00;;;;;;;0.65;0.55;;;;;;;16.73;91.20;100532.28;5007297;28;20040;-64
2022/06/20 01:09:30;;;;;;;0.38;0.38;;;;;;;16.67;90.53;100525.72;5005728;28;20037;-63
2022/06/20 01:11:58;;;;;;;2.35;0.88;;;;;;;16.70;90.82;100517.56;5008208;28;20044;-63
2022/06/20 01:14:36;;;;;;;0.77;0.50;;;;;;;16.70;91.24;100524.94;5009224;28;20026;-63
2022/06/20 01:17:06;;;;;;;0.60;0.47;;;;;;;16.58;91.47;100519.97;5009193;28;20399;-63
2022/06/20 01:20:06;;;;;;;0.40;0.40;;;;;;;16.63;91.68;100542.06;5008894;28;20033;-62
2022/06/20 01:22:43;;;;;;;0.77;0.55;;;;;;;16.64;91.74;100538.19;5001276;28;20385;-62
2022/06/20 01:25:32;;;;;;;0.82;0.63;;;;;;;16.76;91.15;100532.25;5009445;28;20038;-63
2022/06/20 01:27:59;;;;;;;1.77;0.30;;;;;;;16.87;90.45;100530.25;5008335;28;20026;-63
2022/06/20 01:30:29;;;;;;;0.68;0.38;;;;;;;16.80;90.78;100530.28;5008826;28;20026;-63
2022/06/20 01:32:57;;;;;;;1.75;0.63;;;;;;;16.74;91.92;100525.69;5002657;28;20045;-61
2022/06/20 01:38:11;;;;;;;0.60;0.57;;;;;;;16.67;92.52;100534.66;5009219;28;20077;-64
2022/06/20 01:40:39;;;;;;;1.88;0.60;;;;;;;16.75;91.66;100541.59;5007430;28;20580;-63
2022/06/20 01:43:06;;;;;;;0.73;0.40;;;;;;;16.77;91.51;100550.16;5009007;28;20025;-64
2022/06/20 01:48:21;;;;;;;0.50;0.50;;;;;;;16.88;90.36;100553.56;5006810;28;20037;-64
2022/06/20 01:50:47;;;;;;;0.57;0.30;;;;;;;16.86;89.61;100545.03;5007597;28;20509;-63
2022/06/20 01:53:18;;;;;;;1.02;0.55;;;;;;;16.85;89.89;100548.94;5006245;28;20065;-63
2022/06/20 01:55:47;;;;;;;0.93;0.70;;;;;;;16.85;90.11;100545.44;5008239;28;20120;-62
2022/06/20 01:58:19;;;;;;;2.38;0.32;;;;;;;16.74;90.37;100558.34;5008574;28;20394;-64
2022/06/20 02:00:44;;;;;;;2.38;1.25;;;;;;;16.73;90.13;100552.13;5007725;28;20042;-64
2022/06/20 02:03:16;;;;;;;3.45;1.30;;;;;;;16.81;90.13;100541.94;5010699;28;20029;-64
2022/06/20 02:05:45;;;;;;;0.77;0.60;;;;;;;16.76;90.36;100532.25;5009387;28;20045;-64
2022/06/20 02:08:14;;;;;;;1.42;1.00;;;;;;;16.80;89.53;100546.63;5006626;28;20030;-64
2022/06/20 02:10:50;;;;;;;3.60;0.40;;;;;;;16.79;89.37;100547.03;5008408;28;20527;-63
2022/06/20 02:13:18;;;;;;;2.50;0.45;;;;;;;16.79;89.80;100538.84;5003472;28;20491;-63
2022/06/20 02:15:48;;;;;;;0.77;0.52;;;;;;;16.86;89.46;100542.28;5008698;28;20026;-63
2022/06/20 02:18:17;;;;;;;3.00;0.47;;;;;;;16.83;89.32;100543.09;5009331;28;20117;-64
2022/06/20 02:20:46;;;;;;;0.75;0.50;;;;;;;16.82;88.99;100536.09;5006484;28;20037;-63
2022/06/20 02:23:18;;;;;;;0.63;0.30;;;;;;;16.67;89.90;100526.50;5000165;28;20065;-64
2022/06/20 02:25:47;;;;;;;0.47;0.30;;;;;;;16.59;90.08;100519.56;5004674;28;20038;-61
2022/06/20 02:28:19;;;;;;;1.38;0.40;;;;;;;16.53;90.02;100523.13;5018831;28;20053;-61
2022/06/20 02:30:45;;;;;;;0.60;0.57;;;;;;;16.53;89.98;100534.00;5006450;28;20026;-63
2022/06/20 02:33:15;;;;;;;0.55;0.30;;;;;;;16.58;89.95;100545.22;5012455;28;20036;-62
2022/06/20 02:35:41;;;;;;;1.07;0.50;;;;;;;16.67;90.00;100548.25;5009887;28;20032;-61
2022/06/20 02:38:07;;;;;;;0.90;0.40;;;;;;;16.63;90.37;100544.78;5011102;28;20042;-59
2022/06/20 02:40:34;;;;;;;0.30;0.30;;;;;;;16.58;90.44;100547.94;5009235;28;20045;-61
2022/06/20 02:43:09;;;;;;;2.60;0.50;;;;;;;16.56;90.88;100552.22;5015412;28;20177;-62
2022/06/20 02:45:38;;;;;;;0.98;0.70;;;;;;;16.59;90.48;100549.47;5012867;28;20045;-61
2022/06/20 02:48:07;;;;;;;1.75;0.60;;;;;;;16.55;91.08;100539.81;5016775;28;20080;-62
2022/06/20 02:50:39;;;;;;;0.30;0.30;;;;;;;16.37;90.61;100522.78;5012407;28;20065;-63
2022/06/20 02:53:32;;;;;;;1.75;0.60;;;;;;;16.25;91.59;100515.84;5010392;28;20034;-60
2022/06/20 02:55:59;;;;;;;0.77;0.50;;;;;;;16.14;91.20;100524.03;5011865;28;20042;-59
2022/06/20 02:58:29;;;;;;;0.45;0.30;;;;;;;16.01;91.85;100516.72;5012823;28;20029;-59
2022/06/20 03:01:00;;;;;;;0.50;0.50;;;;;;;15.81;92.60;100515.66;5012238;28;20034;-59
2022/06/20 03:03:31;;;;;;;0.30;0.30;;;;;;;15.84;92.31;100515.63;5011527;28;20407;-60
2022/06/20 03:05:57;;;;;;;0.22;0.22;;;;;;;15.83;92.32;100516.03;5009401;28;20285;-61
2022/06/20 03:08:24;;;;;;;0.40;0.32;;;;;;;15.78;92.35;100530.78;5012027;28;20487;-60
2022/06/20 03:10:52;;;;;;;0.52;0.30;;;;;;;15.80;92.22;100533.09;5003772;28;20068;-62
2022/06/20 03:13:21;;;;;;;0.60;0.43;;;;;;;15.88;92.19;100540.06;5007834;28;20033;-62
2022/06/20 03:15:49;;;;;;;0.50;0.50;;;;;;;15.84;92.39;100529.22;5017839;28;20033;-60
2022/06/20 03:18:17;;;;;;;1.77;0.55;;;;;;;15.83;91.87;100533.09;5009721;28;20095;-61
2022/06/20 03:20:44;;;;;;;0.60;0.30;;;;;;;15.83;92.33;100532.34;5011064;28;20049;-62
2022/06/20 03:23:16;;;;;;;0.98;0.50;;;;;;;15.75;92.55;100537.00;5010733;28;20037;-62
2022/06/20 03:25:41;;;;;;;1.33;0.32;;;;;;;15.77;92.89;100537.41;5009401;28;20033;-59
2022/06/20 03:28:13;;;;;;;0.45;0.40;;;;;;;15.86;92.19;100537.75;5012798;28;20464;-62
2022/06/20 03:30:39;;;;;;;0.52;0.50;;;;;;;15.86;92.36;100558.69;5009133;28;20030;-63
2022/06/20 03:33:11;;;;;;;0.38;0.38;;;;;;;15.85;92.54;100560.63;5010274;28;20088;-60
2022/06/20 03:35:38;;;;;;;0.30;0.30;;;;;;;15.84;92.50;100550.94;5008458;28;20038;-62
2022/06/20 03:38:07;;;;;;;0.40;0.40;;;;;;;15.87;92.97;100550.16;5011032;28;20025;-57
2022/06/20 03:40:35;;;;;;;0.70;0.45;;;;;;;15.90;93.47;100551.31;5011351;28;20034;-59
2022/06/20 03:43:01;;;;;;;2.38;0.40;;;;;;;15.95;93.71;100551.69;5011190;28;20371;-60
2022/06/20 03:45:32;;;;;;;0.80;0.50;;;;;;;16.05;93.52;100550.88;5011885;28;20561;-61
2022/06/20 03:48:15;;;;;;;0.77;0.57;;;;;;;16.18;93.43;100546.53;5004368;28;20033;-61
2022/06/20 03:51:19;;;;;;;0.30;0.30;;;;;;;16.22;92.92;100552.75;5019450;28;20299;-58
2022/06/20 03:53:47;;;;;;;0.60;0.50;;;;;;;16.37;92.70;100549.97;4999423;28;20046;-59
2022/06/20 03:56:25;;;;;;;1.05;0.65;;;;;;;16.40;92.47;100543.72;5012099;28;20030;-58
2022/06/20 03:58:58;;;;;;;0.38;0.38;;;;;;;16.50;92.24;100551.88;5017614;28;20634;-62
2022/06/20 04:01:29;;;;;;;2.03;0.80;;;;;;;16.60;91.69;100553.75;5017572;28;20486;-61
2022/06/20 04:04:03;;;;;;;0.60;0.60;;;;;;;16.64;90.81;100557.22;5010666;28;20045;-60
2022/06/20 04:06:44;;;;;;;2.05;0.60;;;;;;;16.64;90.06;100556.44;5007697;28;20046;-60
2022/06/20 04:12:36;;;;;;;3.88;0.80;;;;;;;16.66;90.49;100544.00;5007721;28;20038;-60
2022/06/20 04:15:14;;;;;;;0.50;0.43;;;;;;;16.62;89.51;100542.47;5010272;28;20037;-63
2022/06/20 04:20:58;;;;;;;0.88;0.43;;;;;;;16.59;90.74;100556.88;5006859;28;20120;-62
2022/06/20 04:23:27;;;;;;;1.67;1.23;;;;;;;16.73;91.17;100554.06;5016666;28;20171;-60
2022/06/20 04:26:10;;;;;;;0.63;0.52;;;;;;;16.88;89.84;100563.66;5011415;28;20022;-61
2022/06/20 04:28:45;;;;;;;1.10;1.00;;;;;;;16.89;89.96;100560.56;5010623;28;20434;-58
2022/06/20 04:31:32;;;;;;;0.50;0.50;;;;;;;16.99;88.98;100562.41;5010736;28;20029;-60
2022/06/20 04:34:13;;;;;;;0.45;0.43;;;;;;;17.00;88.59;100569.41;5012098;28;20379;-63
2022/06/20 04:36:47;;;;;;;0.70;0.40;;;;;;;17.03;89.00;100559.69;5000707;28;20577;-60
2022/06/20 04:39:39;;;;;;;0.85;0.57;;;;;;;17.05;88.74;100555.38;5005091;28;20030;-61
2022/06/20 04:42:38;;;;;;;2.13;0.65;;;;;;;17.09;88.13;100567.00;5005758;28;20044;-61
2022/06/20 04:45:39;;;;;;;1.42;0.45;;;;;;;17.10;87.89;100560.41;5004240;28;20034;-58
2022/06/20 04:48:12;;;;;;;2.38;0.40;;;;;;;17.14;87.69;100563.88;5019606;28;20049;-60
2022/06/20 04:50:41;;;;;;;0.52;0.47;;;;;;;17.17;87.15;100550.63;5024529;28;20034;-60
2022/06/20 04:53:12;;;;;;;1.05;0.60;;;;;;;17.08;86.93;100557.31;5017040;28;20030;-59
2022/06/20 04:55:46;;;;;;;0.30;0.30;;;;;;;17.07;86.95;100552.28;5007099;28;20076;-62
2022/06/20 04:58:17;;;;;;;1.17;0.50;;;;;;;17.02;87.52;100544.50;5003896;28;20469;-61
2022/06/20 05:00:44;;;;;;;;;;;;;;;16.85;87.66;100550.88;5003811;28;20070;-57
2022/06/20 05:03:18;;;;;;;1.02;0.93;;;;;;;17.01;88.19;100537.53;5000935;28;19936;-59
2022/06/20 05:05:48;;;;;;;0.82;0.60;;;;;;;17.05;85.86;100538.28;5003674;28;20111;-62
2022/06/20 05:08:26;;;;;;;0.45;0.38;;;;;;;17.16;86.89;100544.41;5002106;28;20065;-62
2022/06/20 05:11:01;;;;;;;0.82;0.40;;;;;;;17.07;85.70;100528.53;5002270;28;20060;-58
2022/06/20 05:13:40;;;;;;;3.10;0.68;;;;;;;17.52;84.78;100537.50;5006527;28;20057;-62
2022/06/20 05:16:14;;;;;;;2.50;0.68;;;;;;;17.74;82.96;100527.16;5007091;28;20041;-60
2022/06/20 05:18:44;;;;;;;3.08;0.50;;;;;;;18.44;81.11;100523.59;5005334;28;20505;-60
2022/06/20 05:21:12;;;;;;;0.57;0.32;;;;;;;19.10;77.95;100529.19;4999339;28;20498;-58
2022/06/20 05:23:44;;;;;;;1.25;1.02;;;;;;;19.63;74.90;100518.13;4994949;28;21358;-60
2022/06/20 05:26:20;;;;;;;0.55;0.40;;;;;;;19.79;74.52;100517.44;4996475;28;20175;-62
2022/06/20 05:28:49;;;;;;;2.10;0.50;;;;;;;20.31;73.42;100521.06;4990226;28;20124;-61
2022/06/20 05:31:19;;;;;;;0.50;0.30;;;;;;;20.74;70.60;100507.19;5005876;28;20410;-62
2022/06/20 05:33:59;;;;;;;0.82;0.50;;;;;;;21.32;65.93;100514.38;5002498;28;20112;-61
2022/06/20 05:36:29;;;;;;;0.65;0.35;;;;;;;21.47;66.22;100506.53;5002942;28;20026;-61
2022/06/20 05:39:07;;;;;;;0.87;0.53;;;;;;;21.78;64.56;100510.38;5001616;28;20403;-62
2022/06/20 05:41:33;;;;;;;1.48;0.50;;;;;;;21.79;61.83;100505.69;5008104;28;20296;-63
2022/06/20 05:43:59;;;;;;;0.60;0.40;;;;;;;21.75;61.47;100492.06;5007888;28;20133;-60
2022/06/20 05:46:39;;;;;;;1.95;0.95;;;;;;;21.68;60.92;100497.00;5008287;28;20034;-61
2022/06/20 05:49:10;;;;;;;2.53;0.55;;;;;;;21.69;62.04;100488.31;4991841;28;20054;-58
2022/06/20 05:51:38;;;;;;;1.42;0.30;;;;;;;21.35;64.59;100490.84;5009115;28;20546;-64
2022/06/20 05:54:09;;;;;;;0.40;0.20;;;;;;;21.14;64.31;100481.19;5004896;28;20065;-63
2022/06/20 05:57:00;;;;;;;4.22;1.23;;;;;;;20.95;64.11;100471.06;5022479;28;20034;-64
2022/06/20 05:59:29;;;;;;;1.33;0.50;;;;;;;21.01;65.45;100476.84;5005960;28;20119;-63
2022/06/20 06:02:00;;;;;;;1.75;0.70;;;;;;;21.15;64.92;100481.97;5009693;28;20032;-63
2022/06/20 06:04:38;;;;;;;0.85;0.60;;;;;;;21.08;65.78;100482.91;5008890;28;20052;-63
2022/06/20 06:07:12;;;;;;;0.40;0.30;;;;;;;21.18;65.33;100487.34;5012797;28;20041;-64
2022/06/20 06:10:06;;;;;;;1.02;0.40;;;;;;;21.15;66.42;100474.50;5010851;28;20037;-64
2022/06/20 06:12:47;;;;;;;1.75;0.73;;;;;;;21.19;66.63;100469.72;5027070;28;20128;-64
2022/06/20 06:15:39;;;;;;;0.98;0.52;;;;;;;21.21;65.76;100470.06;5008841;28;20386;-63
2022/06/20 06:18:13;;;;;;;0.82;0.20;;;;;;;21.37;65.97;100472.75;5004492;28;20116;-64
2022/06/20 06:20:47;;;;;;;2.78;0.38;;;;;;;21.53;61.21;100477.41;5010167;28;20026;-64
2022/06/20 06:23:14;;;;;;;0.35;0.10;;;;;;;21.38;63.17;100479.78;5006594;28;20482;-62
2022/06/20 06:25:42;;;;;;;1.50;0.20;;;;;;;21.39;62.35;100478.56;5016158;28;20467;-65
2022/06/20 06:28:18;;;;;;;0.80;0.20;;;;;;;21.52;61.55;100479.38;5024116;28;20095;-61
2022/06/20 06:31:00;;;;;;;0.60;0.10;;;;;;;21.66;59.76;100475.47;5006213;28;20037;-59
2022/06/20 06:33:31;;;;;;;0.50;0.32;;;;;;;21.62;59.97;100480.31;5008199;28;20033;-58
2022/06/20 06:36:07;;;;;;;0.80;0.68;;;;;;;21.60;59.84;100469.00;5005330;28;20062;-61
2022/06/20 06:38:53;;;;;;;1.30;0.20;;;;;;;21.81;58.73;100478.63;5009124;28;20038;-62
2022/06/20 06:41:41;;;;;;;1.27;0.63;;;;;;;21.77;57.75;100478.69;5011488;28;20033;-60
2022/06/20 06:44:18;;;;;;;0.10;0.10;;;;;;;21.83;56.00;100484.44;5003037;28;20042;-63
2022/06/20 06:46:48;;;;;;;0.00;0.00;;;;;;;21.52;57.10;100484.84;5020409;28;20104;-61
2022/06/20 06:49:16;;;;;;;1.75;0.20;;;;;;;21.33;58.83;100493.97;5004949;28;20030;-61
2022/06/20 06:52:06;;;;;;;0.80;0.43;;;;;;;21.13;61.26;100485.13;5007671;28;20030;-59
2022/06/20 06:54:40;;;;;;;1.55;0.55;;;;;;;21.12;61.83;100489.06;5004401;28;20041;-63
2022/06/20 06:57:32;;;;;;;0.10;0.10;;;;;;;21.01;61.17;100477.59;5012154;28;20048;-61
2022/06/20 07:00:04;;;;;;;0.10;0.10;;;;;;;21.06;59.95;100474.34;5006197;28;20457;-62
2022/06/20 07:02:36;;;;;;;1.33;0.20;;;;;;;21.06;61.77;100484.53;5009152;28;20038;-60
2022/06/20 07:05:05;;;;;;;1.50;0.10;;;;;;;21.11;60.79;100482.06;5009022;28;20116;-57
2022/06/20 07:07:37;;;;;;;0.00;0.00;;;;;;;21.02;60.14;100476.41;5012172;28;20503;-60
2022/06/20 07:10:07;;;;;;;0.60;0.43;;;;;;;20.89;61.94;100481.00;5022183;28;20113;-60
2022/06/20 07:12:44;;;;;;;0.55;0.30;;;;;;;20.93;60.21;100486.38;5011857;28;20041;-57
2022/06/20 07:15:17;;;;;;;2.88;0.10;;;;;;;20.86;60.76;100492.06;5011358;28;20029;-59
2022/06/20 07:17:54;;;;;;;0.32;0.13;;;;;;;20.69;62.51;100494.03;5011626;28;20025;-60
2022/06/20 07:20:24;;;;;;;0.20;0.20;;;;;;;20.66;62.11;100492.13;5018945;28;20050;-60
2022/06/20 07:22:50;;;;;;;1.67;0.20;;;;;;;20.56;63.08;100496.66;5007565;28;20042;-59
2022/06/20 07:25:17;;;;;;;0.10;0.10;;;;;;;20.63;63.04;100496.47;5026266;28;20022;-60
2022/06/20 07:27:49;;;;;;;0.40;0.17;;;;;;;20.51;64.21;100502.66;5002674;28;20029;-59
2022/06/20 07:30:28;;;;;;;0.28;0.20;;;;;;;20.55;61.97;100502.56;5009237;28;20053;-61
2022/06/20 07:33:01;;;;;;;0.40;0.40;;;;;;;20.45;62.90;100498.88;5009907;28;20037;-61
2022/06/20 07:35:36;;;;;;;1.92;1.00;;;;;;;20.47;63.49;100514.84;5009520;28;20084;-59
2022/06/20 07:38:09;;;;;;;0.75;0.17;;;;;;;20.48;63.68;100510.91;5010037;28;20061;-59
2022/06/20 07:41:02;;;;;;;0.28;0.28;;;;;;;20.38;66.33;100520.91;4992667;28;20042;-61
2022/06/20 07:44:00;;;;;;;1.67;0.68;;;;;;;20.45;66.75;100534.44;5007546;28;20510;-59
2022/06/20 07:46:49;;;;;;;0.57;0.30;;;;;;;20.65;65.58;100537.13;4999388;28;20057;-61
2022/06/20 07:49:25;;;;;;;0.45;0.30;;;;;;;20.67;64.63;100545.69;5006116;28;20034;-60
2022/06/20 07:51:56;;;;;;;0.52;0.15;;;;;;;20.78;65.02;100534.47;5008791;28;20065;-63
2022/06/20 07:54:28;;;;;;;0.73;0.20;;;;;;;21.04;62.05;100547.19;5006395;28;20105;-59
2022/06/20 07:57:01;;;;;;;0.20;0.20;;;;;;;21.07;62.71;100535.38;5008707;28;20044;-59
2022/06/20 07:59:34;;;;;;;0.43;0.30;;;;;;;21.17;62.47;100545.31;5005582;28;20034;-57
2022/06/20 08:02:19;;;;;;;1.55;0.35;;;;;;;21.17;63.38;100539.81;5003769;28;20065;-61
2022/06/20 08:04:49;;;;;;;0.30;0.22;;;;;;;21.23;62.32;100540.84;5009131;28;20034;-59
2022/06/20 08:07:24;;;;;;;0.50;0.30;;;;;;;21.40;59.56;100543.16;5010857;28;20376;-59
2022/06/20 08:10:10;;;;;;;1.25;0.30;;;;;;;21.37;59.97;100552.22;5009565;28;20212;-61
2022/06/20 08:12:41;;;;;;;1.00;0.50;;;;;;;21.43;59.08;100552.44;5004249;28;20040;-61
2022/06/20 08:15:17;;;;;;;0.40;0.30;;;;;;;21.62;59.13;100542.59;5005197;28;20117;-60
2022/06/20 08:17:43;;;;;;;1.50;0.28;;;;;;;21.79;58.97;100547.59;5021689;28;20446;-62
2022/06/20 08:20:10;;;;;;;0.20;0.20;;;;;;;22.18;59.95;100536.28;5008826;28;20068;-61
2022/06/20 08:23:00;;;;;;;0.22;0.20;;;;;;;22.49;57.05;100539.31;5024232;28;20049;-61
2022/06/20 08:25:38;;;;;;;0.40;0.20;;;;;;;22.56;57.34;100536.34;5007900;28;20069;-61
2022/06/20 08:28:23;;;;;;;0.25;0.25;;;;;;;22.47;56.55;100530.75;5008176;28;20038;-62
2022/06/20 08:30:54;;;;;;;0.13;0.13;;;;;;;22.35;55.03;100535.03;5004998;28;20017;-62
2022/06/20 08:33:25;;;;;;;0.32;0.20;;;;;;;22.18;54.67;100519.09;5009076;28;20116;-62
2022/06/20 08:35:57;;;;;;;0.55;0.25;;;;;;;22.03;55.35;100524.19;5025482;28;20095;-62
2022/06/20 08:38:46;;;;;;;0.10;0.10;;;;;;;21.83;54.90;100520.88;5008337;28;20034;-61
2022/06/20 08:41:37;;;;;;;0.03;0.03;;;;;;;21.73;54.83;100513.69;5010220;28;20041;-59
2022/06/20 08:44:08;;;;;;;1.55;0.32;;;;;;;21.64;55.96;100507.28;5009089;28;20075;-61
2022/06/20 08:46:36;;;;;;;0.50;0.50;;;;;;;21.77;56.81;100505.34;5008870;28;20026;-59
2022/06/20 08:49:21;;;;;;;0.55;0.20;;;;;;;21.58;55.81;100503.53;5009910;28;20017;-61
2022/06/20 08:52:41;;;;;;;0.15;0.15;;;;;;;21.51;56.54;100505.25;5006288;28;20038;-59
2022/06/20 08:55:12;;;;;;;0.30;0.20;;;;;;;21.35;57.92;100504.53;5006851;28;20512;-59
2022/06/20 08:57:51;;;;;;;0.30;0.13;;;;;;;21.35;58.53;100504.53;5008958;28;20052;-61
2022/06/20 09:01:06;;;;;;;0.68;0.40;;;;;;;21.58;57.80;100501.56;5001764;28;20116;-60
2022/06/20 09:03:49;;;;;;;0.25;0.25;;;;;;;21.90;56.23;100500.69;4995080;28;20042;-62
2022/06/20 09:06:38;;;;;;;0.55;0.30;;;;;;;22.27;54.73;100502.72;5007295;28;20034;-60
2022/06/20 09:09:40;;;;;;;1.08;0.40;;;;;;;22.36;54.34;100503.63;5009284;28;20034;-61
2022/06/20 09:12:40;;;;;;;0.10;0.10;;;;;;;22.26;54.29;100501.22;5008715;28;20033;-61
2022/06/20 09:15:08;;;;;;;0.15;0.15;;;;;;;22.23;55.26;100515.78;5007445;28;20030;-61
2022/06/20 09:17:48;;;;;;;0.40;0.20;;;;;;;22.15;54.31;100511.72;5009790;28;20029;-60
2022/06/20 09:20:16;;;;;;;0.17;0.17;;;;;;;22.03;56.54;100523.41;5008197;28;20786;-62
2022/06/20 09:23:07;;;;;;;0.20;0.20;;;;;;;21.92;56.24;100528.44;5006745;28;20030;-62
2022/06/20 09:26:11;;;;;;;0.10;0.10;;;;;;;21.73;50.82;100526.59;5004390;28;20033;-62
2022/06/20 09:29:10;;;;;;;0.10;0.10;;;;;;;21.56;51.11;100526.66;5001648;28;20053;-62
2022/06/20 09:31:53;;;;;;;0.22;0.22;;;;;;;21.34;53.08;100527.66;5003694;28;20034;-60
2022/06/20 09:34:43;;;;;;;0.15;0.15;;;;;;;21.33;54.05;100535.09;5007152;28;20139;-62
2022/06/20 09:37:33;;;;;;;0.28;0.28;;;;;;;21.43;53.56;100525.81;5011821;28;20391;-61
2022/06/20 09:40:30;;;;;;;0.20;0.20;;;;;;;21.38;54.77;100522.84;5011165;28;20403;-62
2022/06/20 09:43:26;;;;;;;0.25;0.20;;;;;;;21.45;54.87;100511.69;5009916;28;20029;-61
2022/06/20 09:45:57;;;;;;;3.35;0.40;;;;;;;21.47;53.05;100512.81;5009995;28;20025;-60
2022/06/20 09:48:35;;;;;;;1.90;0.30;;;;;;;21.61;52.82;100508.13;5013289;28;20033;-62
2022/06/20 09:51:24;;;;;;;0.65;0.30;;;;;;;21.61;54.06;100508.91;5005459;28;20050;-60
2022/06/20 09:54:08;;;;;;;0.60;0.38;;;;;;;22.14;55.31;100512.94;5018803;28;20080;-61
2022/06/20 09:56:37;;;;;;;0.75;0.40;;;;;;;22.68;53.08;100501.88;5010811;28;20030;-62
2022/06/20 09:59:10;;;;;;;0.77;0.25;;;;;;;23.16;51.42;100509.72;5012793;28;20498;-58
2022/06/20 10:01:54;;;;;;;0.25;0.25;;;;;;;23.66;50.40;100506.03;5006092;28;20037;-60
2022/06/20 10:04:32;;;;;;;0.40;0.30;;;;;;;23.91;49.41;100498.41;5023671;28;20095;-62
2022/06/20 10:07:07;;;;;;;0.43;0.40;;;;;;;23.83;49.77;100488.88;5011622;28;20048;-62
2022/06/20 10:09:39;;;;;;;0.28;0.22;;;;;;;23.66;50.57;100493.06;5012399;28;20025;-61
2022/06/20 10:12:22;;;;;;;0.25;0.20;;;;;;;23.54;51.76;100502.13;5012470;28;20041;-62
2022/06/20 10:14:59;;;;;;;0.35;0.30;;;;;;;23.28;51.18;100503.41;5024202;28;20068;-61
2022/06/20 10:17:35;;;;;;;0.22;0.20;;;;;;;23.21;52.27;100512.66;5011601;28;20038;-62
2022/06/20 10:20:06;;;;;;;0.68;0.40;;;;;;;22.95;54.27;100513.94;5008948;28;20025;-62
2022/06/20 10:23:07;;;;;;;1.58;0.50;;;;;;;22.55;56.07;100512.81;5006627;28;20044;-63
2022/06/20 10:26:22;;;;;;;0.47;0.37;;;;;;;22.28;54.72;100507.78;5002685;28;20144;-60
2022/06/20 10:28:55;;;;;;;2.22;0.38;;;;;;;22.28;53.71;100509.75;4990440;28;20309;-62
2022/06/20 10:31:24;;;;;;;0.85;0.40;;;;;;;22.28;52.99;100513.25;5009039;28;20028;-63
2022/06/20 10:34:04;;;;;;;0.45;0.28;;;;;;;22.34;52.62;100508.00;5003601;28;20068;-62
2022/06/20 10:36:57;;;;;;;0.50;0.40;;;;;;;22.76;50.71;100508.69;5002577;28;20041;-61
2022/06/20 10:39:47;;;;;;;0.40;0.30;;;;;;;23.23;48.18;100496.50;5008565;28;20157;-63
2022/06/20 10:43:01;;;;;;;0.38;0.22;;;;;;;23.55;48.27;100500.16;5010617;28;20455;-62
2022/06/20 10:45:45;;;;;;;0.38;0.38;;;;;;;23.97;47.46;100506.84;5009134;28;20030;-61
2022/06/20 10:48:13;;;;;;;1.88;0.50;;;;;;;24.20;47.16;100503.66;5011895;28;20034;-60
2022/06/20 10:51:12;;;;;;;0.90;0.70;;;;;;;24.26;46.53;100507.34;5007464;28;20025;-63
2022/06/20 10:54:09;;;;;;;0.70;0.35;;;;;;;24.26;46.10;100496.34;5006069;28;20034;-60
2022/06/20 10:56:44;;;;;;;0.40;0.20;;;;;;;24.17;46.20;100501.81;5012313;28;20030;-62
2022/06/20 10:59:28;;;;;;;1.10;0.40;;;;;;;24.10;46.84;100516.59;5007801;28;20034;-61
2022/06/20 11:02:26;;;;;;;0.25;0.20;;;;;;;24.03;44.76;100510.59;5010251;28;20308;-62
2022/06/20 11:05:11;;;;;;;0.20;0.20;;;;;;;23.95;44.40;100523.81;4971252;28;20037;-61
2022/06/20 11:07:40;;;;;;;0.47;0.30;;;;;;;23.88;44.07;100504.84;5008760;28;20058;-61
2022/06/20 11:10:11;;;;;;;5.05;0.22;;;;;;;23.77;44.73;100515.44;5009619;28;20482;-62
2022/06/20 11:12:49;;;;;;;0.70;0.50;;;;;;;23.71;45.04;100517.22;5007889;28;20034;-61
2022/06/20 11:15:40;;;;;;;0.43;0.32;;;;;;;23.46;45.34;100520.09;5007090;28;20046;-62
2022/06/20 11:18:22;;;;;;;0.47;0.20;;;;;;;23.48;46.19;100520.41;5008406;28;20030;-63
2022/06/20 11:21:05;;;;;;;0.20;0.20;;;;;;;23.80;45.68;100516.53;5009456;28;20030;-63
2022/06/20 11:23:39;;;;;;;2.05;0.38;;;;;;;23.97;46.16;100515.13;5000337;28;20054;-61
2022/06/20 11:26:14;;;;;;;0.22;0.20;;;;;;;24.20;46.24;100525.66;4996529;28;20088;-61
2022/06/20 11:29:00;;;;;;;0.38;0.38;;;;;;;24.08;45.58;100516.28;5008760;28;20061;-64
2022/06/20 11:32:08;;;;;;;0.50;0.30;;;;;;;24.10;45.42;100518.56;5003516;28;20026;-63
2022/06/20 11:35:29;;;;;;;0.45;0.20;;;;;;;23.96;46.92;100519.84;4996675;28;20462;-64
2022/06/20 11:38:26;;;;;;;0.22;0.20;;;;;;;23.80;46.36;100514.56;4966164;28;20042;-63
2022/06/20 11:41:02;;;;;;;0.20;0.20;;;;;;;23.65;45.08;100508.03;5000204;28;20410;-63
2022/06/20 11:43:53;;;;;;;0.60;0.40;;;;;;;23.55;43.77;100524.91;5016303;28;20129;-61
2022/06/20 11:46:31;;;;;;;0.52;0.40;;;;;;;23.39;45.07;100530.56;5012483;28;20109;-61
2022/06/20 11:48:59;;;;;;;1.75;0.60;;;;;;;23.22;44.99;100527.19;5000586;28;20041;-62
2022/06/20 11:51:44;;;;;;;0.40;0.40;;;;;;;23.23;45.25;100532.22;4986623;28;20084;-62
2022/06/20 11:54:52;;;;;;;0.60;0.40;;;;;;;23.46;45.46;100531.06;5008677;28;20022;-63
2022/06/20 11:57:30;;;;;;;0.55;0.52;;;;;;;23.89;45.00;100519.34;5004275;28;20140;-60
2022/06/20 12:00:12;;;;;;;0.25;0.25;;;;;;;24.13;46.88;100518.47;5003961;28;20061;-63
2022/06/20 12:02:45;;;;;;;0.60;0.20;;;;;;;24.29;43.20;100519.47;5006481;28;20479;-60
2022/06/20 12:05:17;;;;;;;0.20;0.20;;;;;;;24.37;42.74;100515.97;5007223;28;20129;-63
2022/06/20 12:08:11;;;;;;;0.65;0.40;;;;;;;24.49;44.54;100509.59;5009959;28;20034;-63
2022/06/20 12:10:40;;;;;;;0.35;0.30;;;;;;;24.67;42.87;100522.66;5003635;28;20045;-64
2022/06/20 12:13:39;;;;;;;0.50;0.20;;;;;;;24.63;41.90;100509.03;5009105;28;20026;-63
2022/06/20 12:16:39;;;;;;;1.58;0.20;;;;;;;24.59;41.56;100504.88;5009106;28;20046;-63
2022/06/20 12:24:54;;;;;;;0.17;0.10;;;;;;;24.08;43.52;100499.00;5002374;28;20045;-63
2022/06/20 12:27:20;;;;;;;0.25;0.10;;;;;;;24.31;42.69;100493.00;5006389;28;20526;-64